METAR AND TAF INFORMATION
METAR FOR EHGR
ADDS - METARS form results

(1312 UTC 19 November 2018)
Data provider http://aviationweather.gov/metar/data/
 
METAR text: EHGR 191255Z AUTO 05011KT 330V110 9999 FEW022 SCT025 OVC053 06/03 Q1018 REDZ BLU 06013KG23T 9999 SCT020 BKN050
Conditions at: EHGR (GILZE-RIJEN RNLA, NL) observed 1255 UTC 19 November 2018
Temperature: 6.0°C (43°F)
Dewpoint: 3.0°C (37°F) [RH = 81%]
Pressure (altimeter): 30.06 inches Hg (1018.0 mb)
Winds: from the NE (50 degrees) at 13 MPH (11 knots; 5.7 m/s)
Visibility: 6 or more miles (10+ km)
Ceiling: 5300 feet AGL
Clouds: few clouds at 2200 feet AGL
scattered clouds at 2500 feet AGL
overcast cloud deck at 5300 feet AGL
scattered clouds at 2000 feet AGL
Weather: no significant weather observed at this time

METAR text: EHGR 191246Z AUTO 05012KT 330V110 9999 DZ SCT022 SCT028 BKN034 06/03 Q1018 WHT 06013KG23T 9999 SCT020 BKN050
Conditions at: EHGR (GILZE-RIJEN RNLA, NL) observed 1246 UTC 19 November 2018
Temperature: 6.0°C (43°F)
Dewpoint: 3.0°C (37°F) [RH = 81%]
Pressure (altimeter): 30.06 inches Hg (1018.0 mb)
Winds: from the NE (50 degrees) at 14 MPH (12 knots; 6.2 m/s)
Visibility: 6 or more miles (10+ km)
Ceiling: 3400 feet AGL
Clouds: scattered clouds at 2200 feet AGL
scattered clouds at 2800 feet AGL
broken clouds at 3400 feet AGL
scattered clouds at 2000 feet AGL
Weather: DZ  (moderate drizzle)

METAR text: EHGR 191238Z AUTO 05014KT 350V100 9999 -SHRA FEW018 SCT025 BKN032 06/03 Q1018 BLU 06013KG23T 9999 SCT020 BKN050
Conditions at: EHGR (GILZE-RIJEN RNLA, NL) observed 1238 UTC 19 November 2018
Temperature: 6.0°C (43°F)
Dewpoint: 3.0°C (37°F) [RH = 81%]
Pressure (altimeter): 30.06 inches Hg (1018.0 mb)
Winds: from the NE (50 degrees) at 16 MPH (14 knots; 7.2 m/s)
Visibility: 6 or more miles (10+ km)
Ceiling: 3200 feet AGL
Clouds: few clouds at 1800 feet AGL
scattered clouds at 2500 feet AGL
broken clouds at 3200 feet AGL
scattered clouds at 2000 feet AGL
Weather: -SHRA  (light rain showers)

METAR text: EHGR 191225Z AUTO 05014KT 350V090 9999 -RA SCT021 BKN025 BKN031 06/03 Q1018 WHT 06013KG23T 9999 SCT020 BKN050
Conditions at: EHGR (GILZE-RIJEN RNLA, NL) observed 1225 UTC 19 November 2018
Temperature: 6.0°C (43°F)
Dewpoint: 3.0°C (37°F) [RH = 81%]
Pressure (altimeter): 30.06 inches Hg (1018.0 mb)
Winds: from the NE (50 degrees) at 16 MPH (14 knots; 7.2 m/s)
Visibility: 6 or more miles (10+ km)
Ceiling: 2500 feet AGL
Clouds: scattered clouds at 2100 feet AGL
broken clouds at 2500 feet AGL
broken clouds at 3100 feet AGL
scattered clouds at 2000 feet AGL
Weather: -RA  (light rain)

Forecast for: EHGR (GILZE-RIJEN RNLA, NL)
Text: TAF EHGR 190914Z 1910/1922 05015G25KT 9999 BKN018
Forecast period: 1000 to 2200 UTC 19 November 2018
Forecast type: FROM: standard forecast or significant change
Winds: from the NE (50 degrees) at 17 MPH (15 knots; 7.7 m/s)
gusting to 29 MPH (25 knots; 12.9 m/s)
Visibility: 6 or more miles 10+ km)
Ceiling: 1800 feet AGL
Clouds: broken clouds at 1800 feet AGL
Weather: no significant weather forecast for this period
Text: PROB30
Forecast period: 1000 to 1500 UTC 19 November 2018
Forecast type: TEMPORARY: The following changes expected for less than half the time period
Visibility: missing
Ceiling: 1700 feet AGL
Clouds: scattered clouds at 1400 feet AGL
broken clouds at 1700 feet AGL
Weather: no significant weather forecast for this period

 AIRPORT MAP

 RUNWAY INFORMATION
Runway 02 Runway length 6549 ft Runway width 98 ft
Runway elevation 49 ft Runway displaced threshold 191 ft Runway heading 18
Runway 20 Runway length 6549 ft Runway width 98 ft
Runway elevation 40 ft Runway displaced threshold 192 ft Runway heading 198
Runway 10 Runway length 9118 ft Runway width 148 ft
Runway elevation 42 ft Runway displaced threshold 427 ft Runway heading 100
Runway 28 Runway length 9118 ft Runway width 148 ft
Runway elevation 38 ft Runway displaced threshold 331 ft Runway heading 280

 AIRPORT FREQUENCIES
Type ARR Name RAPCON WES Frequency 123.575 MHZ
Type GND Name GND Frequency 23.492 MHZ
Type TWR Name TWR Frequency 125.325 MHZ

 AIRPORT NEAR NAVIGATION AIDS
Type TACAN Name Gilze Rijen Frequency 116400 KHZ